KCHO/CHO METAR and TAF weather

Enter ICAO airport designator
Station Type Date Time Source
KCHO METAR 2021/10/20 05:53 UTC NOAA

KCHO 200553Z AUTO 24004KT 10SM CLR 13/08 A3016 RMK AO2 SLP209 T01280078 10183 20106 53003


Station Type Date Time Source
KCHO Decoded METAR 2021/10/20 05:53 UTC NOAA

CHARLOTTESVILLE-ALBEMARLE, VA, United States (KCHO) 38-08N 078-27W 192M
Oct 20, 2021 - 01:53 AM EDT / 2021.10.20 0553 UTC
Wind: from the WSW (240 degrees) at 5 MPH (4 KT):0
Visibility: 10 mile(s):0
Sky conditions: clear
Temperature: 55.0 F (12.8 C)
Dew Point: 46.0 F (7.8 C)
Relative Humidity: 71%
Pressure (altimeter): 30.16 in. Hg (1021 hPa)
Pressure tendency: 0.01 inches (0.3 hPa) higher than three hours ago
ob: KCHO 200553Z AUTO 24004KT 10SM CLR 13/08 A3016 RMK AO2 SLP209 T01280078 10183 20106 53003
cycle: 6

Station Type Date Time Source
KCHO TAF 2021/10/20 06:30 UTC NOAA

TAF KCHO 200526Z 2006/2106 28003KT P6SM SCT250
FM200700 00000KT P6SM SCT250
FM201200 25003KT P6SM FEW250
FM202000 22005KT P6SM SKC
FM210300 24003KT P6SM SKC

Example: see airport list